createdAt,value
2023-02-07T09:42:17.712Z,101610.95
2023-02-07T09:44:57.216Z,101607.05
2023-02-07T09:47:25.018Z,101602.89
2023-02-07T09:49:55.485Z,101600.07
2023-02-07T09:52:38.877Z,101597.47
2023-02-07T09:55:06.133Z,101594.27
2023-02-07T09:57:45.282Z,101595.52
2023-02-07T10:00:28.860Z,101594.31
2023-02-07T10:03:21.550Z,101593.43
2023-02-07T10:06:18.909Z,101592.79
2023-02-07T10:08:47.357Z,101584.80
2023-02-07T10:11:25.030Z,101579.91
2023-02-07T10:14:01.646Z,101579.58
2023-02-07T10:16:41.313Z,101579.40
2023-02-07T10:19:35.346Z,101579.27
2023-02-07T10:22:30.117Z,101582.21
2023-02-07T10:25:21.893Z,101580.30
2023-02-07T10:28:04.043Z,101578.35
2023-02-07T10:30:32.476Z,101579.82
2023-02-07T10:33:12.291Z,101584.09
2023-02-07T10:35:39.380Z,101581.19
2023-02-07T10:38:17.674Z,101579.46
2023-02-07T10:40:51.202Z,101578.84
2023-02-07T10:43:28.499Z,101579.80
2023-02-07T10:46:05.556Z,101579.45
2023-02-07T10:48:33.209Z,101585.52
2023-02-07T10:51:19.474Z,101590.00
2023-02-07T10:53:59.733Z,101587.48
2023-02-07T10:56:27.285Z,101589.25
2023-02-07T10:58:57.646Z,101582.53
2023-02-07T11:01:26.569Z,101580.28
2023-02-07T11:03:54.054Z,101584.11
2023-02-07T11:06:30.502Z,101582.02
2023-02-07T11:09:23.004Z,101583.45
2023-02-07T11:11:51.935Z,101583.70
2023-02-07T11:14:25.837Z,101579.55
2023-02-07T11:16:54.233Z,101578.59
2023-02-07T11:19:23.880Z,101575.15
2023-02-07T11:21:51.904Z,101576.81
2023-02-07T11:24:24.975Z,101575.40
2023-02-07T11:27:02.352Z,101581.47
2023-02-07T11:29:31.144Z,101581.45
2023-02-07T11:31:59.332Z,101581.06
2023-02-07T11:34:27.772Z,101581.79
2023-02-07T11:36:56.165Z,101585.64
2023-02-07T11:39:23.043Z,101588.27
2023-02-07T11:42:00.425Z,101592.63
2023-02-07T11:44:29.840Z,101595.63
2023-02-07T11:46:58.804Z,101598.08
2023-02-07T11:49:37.680Z,101600.33
2023-02-07T11:52:04.893Z,101601.48
2023-02-07T11:54:31.896Z,101602.05
2023-02-07T11:57:06.587Z,101603.86
